Macksville, Kansas
Current Conditions -  °F | °C
As of 8:15 PM on Friday 28 Nov 2014 (Local Time) from KPTT Reporting Station
Clear Clear  
Wind Chill: 42°   Ceiling: Unl
Heat Index: 46°   Visibility: 10mi
Dew Point: 32°   Wind: 9mph
Humidity: 57%   Direction: 200°SSW
Pressure: 29.77"   Gusts: NA
Location:  37.96°N, 98.97°W
Report Text: KPTT 290215Z AUTO 20008KT 10SM CLR 08/00 A2977 RMK AO2
Loading
Personal Weather Stations






























Interactive Weather Map New forecast layout! Learn more

10-Day Weather Forecast

Advertisements
Track Severe Weather on mobile